XIY weather

Xi'an Xianyang International Airport
Xi'an, Shaanxi Province, China

Public forecast

Using degrees Celsius for public forecast. Weather courtesy of forecast.io.

METAR (pilot weather report)

Retrieved 2019/05/22 04:00 UTC (4 minutes ago):

ZLXY 220400Z 20003MPS 140V280 CAVOK 31/09 Q1012 NOSIG

TAF (pilot weather forecast)

Forecast is more than 12 hours old.

Retrieved 2019/05/21 00:00 UTC (1 day ago):

TAF ZLXY 211903Z 2200/2224 24003MPS 6000 NSC TX33/2208Z TN15/2222Z